KTVF/TVF METAR and TAF weather

Enter ICAO airport designator
Station Type Date Time Source
KTVF METAR 2019/02/20 23:08 UTC NOAA

KTVF 202308Z AUTO 06013KT 4SM -SN BR BKN029 OVC035 M07/M09 A2965 RMK AO2 P0000 FZRANO


Station Type Date Time Source
KTVF Decoded METAR 2019/02/20 23:08 UTC NOAA

Thief River Falls, Thief River Falls Regional Airport, MN, United States (KTVF) 48-04N 096-11W
Feb 20, 2019 - 06:08 PM EST / 2019.02.20 2308 UTC
Wind: from the ENE (060 degrees) at 15 MPH (13 KT):0
Visibility: 4 mile(s):0
Sky conditions: overcast
Weather: light snow; mist
Precipitation last hour: A trace
Temperature: 19 F (-7 C)
Windchill: 5 F (-15 C):1
Dew Point: 15 F (-9 C)
Relative Humidity: 85%
Pressure (altimeter): 29.65 in. Hg (1004 hPa)
ob: KTVF 202308Z AUTO 06013KT 4SM -SN BR BKN029 OVC035 M07/M09 A2965 RMK AO2 P0000 FZRANO
cycle: 23

Station Type Date Time Source
KTVF TAF 2019/02/20 18:42 UTC NOAA

TAF KTVF 201740Z 2018/2118 09010KT 1 1/2SM -SN OVC025
FM202200 06009KT 3/4SM -SN OVC020
FM210000 06007KT 2SM -SN OVC020
TEMPO 2102/2103 1SM -SN OVC004
FM210500 VRB04KT P6SM OVC020


Example: see airport list